sensor_id;sensor_type;location;lat;lon;timestamp;P1;durP1;ratioP1;P2;durP2;ratioP2
6209;SDS011;3138;52.550;13.148;2023-03-13T00:01:14;25.17;;;10.13;;
6209;SDS011;3138;52.550;13.148;2023-03-13T00:03:44;29.20;;;11.30;;
6209;SDS011;3138;52.550;13.148;2023-03-13T00:06:11;22.00;;;10.40;;
6209;SDS011;3138;52.550;13.148;2023-03-13T00:08:39;29.63;;;9.83;;
6209;SDS011;3138;52.550;13.148;2023-03-13T00:11:07;18.80;;;10.30;;
6209;SDS011;3138;52.550;13.148;2023-03-13T00:13:35;26.80;;;9.70;;
6209;SDS011;3138;52.550;13.148;2023-03-13T00:16:03;23.20;;;10.57;;
6209;SDS011;3138;52.550;13.148;2023-03-13T00:18:31;28.43;;;10.43;;
6209;SDS011;3138;52.550;13.148;2023-03-13T00:21:03;36.30;;;10.43;;
6209;SDS011;3138;52.550;13.148;2023-03-13T00:23:31;24.03;;;11.40;;
6209;SDS011;3138;52.550;13.148;2023-03-13T00:26:00;42.80;;;10.60;;
6209;SDS011;3138;52.550;13.148;2023-03-13T00:28:28;33.20;;;9.87;;
6209;SDS011;3138;52.550;13.148;2023-03-13T00:30:59;25.13;;;11.03;;
6209;SDS011;3138;52.550;13.148;2023-03-13T00:33:27;20.23;;;10.10;;
6209;SDS011;3138;52.550;13.148;2023-03-13T00:35:56;34.17;;;10.80;;
6209;SDS011;3138;52.550;13.148;2023-03-13T00:38:25;36.33;;;12.23;;
6209;SDS011;3138;52.550;13.148;2023-03-13T00:40:57;39.37;;;10.37;;
6209;SDS011;3138;52.550;13.148;2023-03-13T00:43:25;37.47;;;11.30;;
6209;SDS011;3138;52.550;13.148;2023-03-13T00:45:52;31.23;;;10.33;;
6209;SDS011;3138;52.550;13.148;2023-03-13T00:48:19;24.20;;;10.40;;
6209;SDS011;3138;52.550;13.148;2023-03-13T00:50:46;34.67;;;11.70;;
6209;SDS011;3138;52.550;13.148;2023-03-13T00:53:12;32.83;;;12.43;;
6209;SDS011;3138;52.550;13.148;2023-03-13T00:55:50;46.80;;;10.13;;
6209;SDS011;3138;52.550;13.148;2023-03-13T00:58:18;33.30;;;10.97;;
6209;SDS011;3138;52.550;13.148;2023-03-13T01:00:54;39.67;;;11.00;;
6209;SDS011;3138;52.550;13.148;2023-03-13T01:03:22;26.57;;;10.27;;
6209;SDS011;3138;52.550;13.148;2023-03-13T01:06:11;25.17;;;10.47;;
6209;SDS011;3138;52.550;13.148;2023-03-13T01:08:40;28.93;;;9.90;;
6209;SDS011;3138;52.550;13.148;2023-03-13T01:11:09;32.07;;;11.20;;
6209;SDS011;3138;52.550;13.148;2023-03-13T01:13:38;37.83;;;11.17;;
6209;SDS011;3138;52.550;13.148;2023-03-13T01:16:24;30.27;;;10.77;;
6209;SDS011;3138;52.550;13.148;2023-03-13T01:19:03;25.80;;;10.37;;
6209;SDS011;3138;52.550;13.148;2023-03-13T01:21:31;39.97;;;10.30;;
6209;SDS011;3138;52.550;13.148;2023-03-13T01:23:58;31.03;;;9.80;;
6209;SDS011;3138;52.550;13.148;2023-03-13T01:26:28;28.80;;;10.37;;
6209;SDS011;3138;52.550;13.148;2023-03-13T01:29:05;39.33;;;10.37;;
6209;SDS011;3138;52.550;13.148;2023-03-13T01:31:33;21.23;;;9.50;;
6209;SDS011;3138;52.550;13.148;2023-03-13T01:34:01;43.83;;;10.17;;
6209;SDS011;3138;52.550;13.148;2023-03-13T01:36:30;28.13;;;9.27;;
6209;SDS011;3138;52.550;13.148;2023-03-13T01:39:02;22.87;;;9.23;;
6209;SDS011;3138;52.550;13.148;2023-03-13T01:41:35;33.47;;;10.87;;
6209;SDS011;3138;52.550;13.148;2023-03-13T01:44:22;27.40;;;9.03;;
6209;SDS011;3138;52.550;13.148;2023-03-13T01:46:54;30.53;;;7.53;;
6209;SDS011;3138;52.550;13.148;2023-03-13T01:49:42;21.53;;;8.43;;
6209;SDS011;3138;52.550;13.148;2023-03-13T01:52:10;29.23;;;9.93;;
6209;SDS011;3138;52.550;13.148;2023-03-13T01:54:50;27.40;;;8.17;;
6209;SDS011;3138;52.550;13.148;2023-03-13T02:00:12;20.40;;;7.80;;
6209;SDS011;3138;52.550;13.148;2023-03-13T02:02:41;18.57;;;8.50;;
6209;SDS011;3138;52.550;13.148;2023-03-13T02:05:41;29.67;;;8.30;;
6209;SDS011;3138;52.550;13.148;2023-03-13T02:08:28;29.80;;;7.90;;
6209;SDS011;3138;52.550;13.148;2023-03-13T02:11:03;24.50;;;8.13;;
6209;SDS011;3138;52.550;13.148;2023-03-13T02:13:43;23.43;;;6.53;;
6209;SDS011;3138;52.550;13.148;2023-03-13T02:16:13;24.57;;;8.73;;
6209;SDS011;3138;52.550;13.148;2023-03-13T02:18:48;24.50;;;7.30;;
6209;SDS011;3138;52.550;13.148;2023-03-13T02:21:31;25.17;;;7.00;;
6209;SDS011;3138;52.550;13.148;2023-03-13T02:24:26;21.97;;;7.13;;
6209;SDS011;3138;52.550;13.148;2023-03-13T02:27:36;25.63;;;7.10;;
6209;SDS011;3138;52.550;13.148;2023-03-13T02:30:05;30.77;;;7.43;;
6209;SDS011;3138;52.550;13.148;2023-03-13T02:32:35;34.77;;;7.90;;
6209;SDS011;3138;52.550;13.148;2023-03-13T02:35:04;25.33;;;7.33;;
6209;SDS011;3138;52.550;13.148;2023-03-13T02:37:34;22.13;;;6.80;;
6209;SDS011;3138;52.550;13.148;2023-03-13T02:40:02;19.33;;;6.20;;
6209;SDS011;3138;52.550;13.148;2023-03-13T02:42:33;18.93;;;6.40;;
6209;SDS011;3138;52.550;13.148;2023-03-13T02:45:03;24.93;;;7.60;;
6209;SDS011;3138;52.550;13.148;2023-03-13T02:47:31;44.60;;;7.63;;
6209;SDS011;3138;52.550;13.148;2023-03-13T02:49:58;20.60;;;6.07;;
6209;SDS011;3138;52.550;13.148;2023-03-13T02:52:25;33.43;;;6.20;;
6209;SDS011;3138;52.550;13.148;2023-03-13T02:54:56;33.03;;;7.37;;
6209;SDS011;3138;52.550;13.148;2023-03-13T02:57:26;25.90;;;5.87;;
6209;SDS011;3138;52.550;13.148;2023-03-13T02:59:53;12.57;;;5.77;;
6209;SDS011;3138;52.550;13.148;2023-03-13T03:02:23;37.63;;;6.80;;
6209;SDS011;3138;52.550;13.148;2023-03-13T03:04:49;32.83;;;6.63;;
6209;SDS011;3138;52.550;13.148;2023-03-13T03:07:16;29.10;;;7.10;;
6209;SDS011;3138;52.550;13.148;2023-03-13T03:09:43;16.33;;;5.33;;
6209;SDS011;3138;52.550;13.148;2023-03-13T03:12:10;35.07;;;6.60;;
6209;SDS011;3138;52.550;13.148;2023-03-13T03:14:37;27.87;;;5.40;;
6209;SDS011;3138;52.550;13.148;2023-03-13T03:17:04;34.73;;;6.03;;
6209;SDS011;3138;52.550;13.148;2023-03-13T03:19:33;31.90;;;6.67;;
6209;SDS011;3138;52.550;13.148;2023-03-13T03:22:00;21.40;;;7.63;;
6209;SDS011;3138;52.550;13.148;2023-03-13T03:24:27;33.10;;;6.90;;
6209;SDS011;3138;52.550;13.148;2023-03-13T03:26:56;22.67;;;5.43;;
6209;SDS011;3138;52.550;13.148;2023-03-13T03:29:23;32.93;;;5.87;;
6209;SDS011;3138;52.550;13.148;2023-03-13T03:32:11;25.70;;;5.63;;
6209;SDS011;3138;52.550;13.148;2023-03-13T03:37:37;18.63;;;5.53;;
6209;SDS011;3138;52.550;13.148;2023-03-13T03:40:48;27.83;;;7.13;;
6209;SDS011;3138;52.550;13.148;2023-03-13T03:43:30;33.57;;;7.97;;
6209;SDS011;3138;52.550;13.148;2023-03-13T03:46:21;26.63;;;6.10;;
6209;SDS011;3138;52.550;13.148;2023-03-13T03:48:53;25.23;;;6.40;;
6209;SDS011;3138;52.550;13.148;2023-03-13T03:51:21;28.93;;;5.03;;
6209;SDS011;3138;52.550;13.148;2023-03-13T03:53:48;24.43;;;5.47;;
6209;SDS011;3138;52.550;13.148;2023-03-13T03:56:17;31.40;;;5.70;;
6209;SDS011;3138;52.550;13.148;2023-03-13T03:58:44;38.27;;;5.73;;
6209;SDS011;3138;52.550;13.148;2023-03-13T04:01:11;25.37;;;5.60;;
6209;SDS011;3138;52.550;13.148;2023-03-13T04:03:54;35.30;;;5.77;;
6209;SDS011;3138;52.550;13.148;2023-03-13T04:09:04;28.10;;;6.20;;
6209;SDS011;3138;52.550;13.148;2023-03-13T04:11:54;48.30;;;7.10;;
6209;SDS011;3138;52.550;13.148;2023-03-13T04:14:21;29.57;;;5.80;;
6209;SDS011;3138;52.550;13.148;2023-03-13T04:17:02;43.00;;;6.23;;
6209;SDS011;3138;52.550;13.148;2023-03-13T04:19:29;50.83;;;5.87;;
6209;SDS011;3138;52.550;13.148;2023-03-13T04:21:57;23.57;;;6.10;;
6209;SDS011;3138;52.550;13.148;2023-03-13T04:24:24;35.23;;;6.40;;
6209;SDS011;3138;52.550;13.148;2023-03-13T04:26:51;31.83;;;6.00;;
6209;SDS011;3138;52.550;13.148;2023-03-13T04:29:21;31.73;;;5.10;;
6209;SDS011;3138;52.550;13.148;2023-03-13T04:32:25;37.60;;;5.80;;
6209;SDS011;3138;52.550;13.148;2023-03-13T04:35:07;48.57;;;6.70;;
6209;SDS011;3138;52.550;13.148;2023-03-13T04:37:49;34.43;;;6.30;;
6209;SDS011;3138;52.550;13.148;2023-03-13T04:40:41;26.13;;;5.67;;
6209;SDS011;3138;52.550;13.148;2023-03-13T04:46:11;43.60;;;6.63;;
6209;SDS011;3138;52.550;13.148;2023-03-13T04:48:38;28.33;;;5.57;;
6209;SDS011;3138;52.550;13.148;2023-03-13T04:51:08;29.10;;;5.53;;
6209;SDS011;3138;52.550;13.148;2023-03-13T04:53:38;34.23;;;5.50;;
6209;SDS011;3138;52.550;13.148;2023-03-13T04:56:11;47.33;;;6.20;;
6209;SDS011;3138;52.550;13.148;2023-03-13T04:58:57;47.27;;;6.50;;
6209;SDS011;3138;52.550;13.148;2023-03-13T05:01:33;36.27;;;5.87;;
6209;SDS011;3138;52.550;13.148;2023-03-13T05:04:01;28.97;;;5.77;;
6209;SDS011;3138;52.550;13.148;2023-03-13T05:06:44;27.60;;;6.50;;
6209;SDS011;3138;52.550;13.148;2023-03-13T05:12:00;32.13;;;5.83;;
6209;SDS011;3138;52.550;13.148;2023-03-13T05:14:29;31.10;;;6.60;;
6209;SDS011;3138;52.550;13.148;2023-03-13T05:16:56;28.97;;;5.67;;
6209;SDS011;3138;52.550;13.148;2023-03-13T05:19:25;23.87;;;5.37;;
6209;SDS011;3138;52.550;13.148;2023-03-13T05:21:52;24.57;;;6.47;;
6209;SDS011;3138;52.550;13.148;2023-03-13T05:24:19;36.93;;;6.73;;
6209;SDS011;3138;52.550;13.148;2023-03-13T05:26:47;30.80;;;6.63;;
6209;SDS011;3138;52.550;13.148;2023-03-13T05:29:14;46.10;;;6.10;;
6209;SDS011;3138;52.550;13.148;2023-03-13T05:31:46;40.07;;;5.80;;
6209;SDS011;3138;52.550;13.148;2023-03-13T05:34:13;31.97;;;6.03;;
6209;SDS011;3138;52.550;13.148;2023-03-13T05:36:40;38.50;;;6.47;;
6209;SDS011;3138;52.550;13.148;2023-03-13T05:39:07;42.93;;;6.60;;
6209;SDS011;3138;52.550;13.148;2023-03-13T05:41:34;47.13;;;6.90;;
6209;SDS011;3138;52.550;13.148;2023-03-13T05:44:04;38.57;;;6.30;;
6209;SDS011;3138;52.550;13.148;2023-03-13T05:46:34;52.93;;;6.63;;
6209;SDS011;3138;52.550;13.148;2023-03-13T05:49:01;36.80;;;5.57;;
6209;SDS011;3138;52.550;13.148;2023-03-13T05:51:28;31.07;;;5.30;;
6209;SDS011;3138;52.550;13.148;2023-03-13T05:53:55;37.90;;;7.30;;
6209;SDS011;3138;52.550;13.148;2023-03-13T05:56:22;48.47;;;8.93;;
6209;SDS011;3138;52.550;13.148;2023-03-13T05:58:49;40.83;;;7.03;;
6209;SDS011;3138;52.550;13.148;2023-03-13T06:01:18;31.77;;;7.37;;
6209;SDS011;3138;52.550;13.148;2023-03-13T06:03:45;39.03;;;5.67;;
6209;SDS011;3138;52.550;13.148;2023-03-13T06:06:12;36.87;;;6.90;;
6209;SDS011;3138;52.550;13.148;2023-03-13T06:08:39;37.27;;;6.80;;
6209;SDS011;3138;52.550;13.148;2023-03-13T06:11:06;37.20;;;7.50;;
6209;SDS011;3138;52.550;13.148;2023-03-13T06:13:33;39.23;;;6.83;;
6209;SDS011;3138;52.550;13.148;2023-03-13T06:15:59;53.53;;;6.90;;
6209;SDS011;3138;52.550;13.148;2023-03-13T06:18:30;40.03;;;7.30;;
6209;SDS011;3138;52.550;13.148;2023-03-13T06:20:57;27.40;;;6.23;;
6209;SDS011;3138;52.550;13.148;2023-03-13T06:23:25;37.53;;;6.40;;
6209;SDS011;3138;52.550;13.148;2023-03-13T06:25:52;49.00;;;7.87;;
6209;SDS011;3138;52.550;13.148;2023-03-13T06:28:20;44.13;;;6.67;;
6209;SDS011;3138;52.550;13.148;2023-03-13T06:30:47;52.67;;;7.47;;
6209;SDS011;3138;52.550;13.148;2023-03-13T06:33:13;40.93;;;6.60;;
6209;SDS011;3138;52.550;13.148;2023-03-13T06:35:44;43.10;;;6.57;;
6209;SDS011;3138;52.550;13.148;2023-03-13T06:38:11;42.67;;;5.50;;
6209;SDS011;3138;52.550;13.148;2023-03-13T06:40:38;53.23;;;7.37;;
6209;SDS011;3138;52.550;13.148;2023-03-13T06:43:04;35.60;;;5.90;;
6209;SDS011;3138;52.550;13.148;2023-03-13T06:45:33;42.10;;;6.83;;
6209;SDS011;3138;52.550;13.148;2023-03-13T06:48:00;39.03;;;6.87;;
6209;SDS011;3138;52.550;13.148;2023-03-13T06:50:27;32.77;;;6.40;;
6209;SDS011;3138;52.550;13.148;2023-03-13T06:52:55;66.03;;;8.27;;
6209;SDS011;3138;52.550;13.148;2023-03-13T06:55:22;49.57;;;6.97;;
6209;SDS011;3138;52.550;13.148;2023-03-13T06:57:49;46.17;;;6.90;;
6209;SDS011;3138;52.550;13.148;2023-03-13T07:00:17;35.17;;;6.23;;
6209;SDS011;3138;52.550;13.148;2023-03-13T07:02:45;36.83;;;6.57;;
6209;SDS011;3138;52.550;13.148;2023-03-13T07:05:11;34.03;;;6.60;;
6209;SDS011;3138;52.550;13.148;2023-03-13T07:07:38;52.80;;;7.17;;
6209;SDS011;3138;52.550;13.148;2023-03-13T07:10:07;53.63;;;7.87;;
6209;SDS011;3138;52.550;13.148;2023-03-13T07:12:35;29.60;;;5.50;;
6209;SDS011;3138;52.550;13.148;2023-03-13T07:15:02;43.53;;;6.80;;
6209;SDS011;3138;52.550;13.148;2023-03-13T07:17:30;44.47;;;6.73;;
6209;SDS011;3138;52.550;13.148;2023-03-13T07:19:56;50.97;;;6.70;;
6209;SDS011;3138;52.550;13.148;2023-03-13T07:22:23;36.37;;;8.03;;
6209;SDS011;3138;52.550;13.148;2023-03-13T07:24:50;52.73;;;8.67;;
6209;SDS011;3138;52.550;13.148;2023-03-13T07:27:18;51.87;;;6.97;;
6209;SDS011;3138;52.550;13.148;2023-03-13T07:29:46;30.50;;;6.07;;
6209;SDS011;3138;52.550;13.148;2023-03-13T07:32:13;50.80;;;6.97;;
6209;SDS011;3138;52.550;13.148;2023-03-13T07:34:40;38.07;;;6.43;;
6209;SDS011;3138;52.550;13.148;2023-03-13T07:37:08;50.53;;;7.77;;
6209;SDS011;3138;52.550;13.148;2023-03-13T07:39:35;41.90;;;7.70;;
6209;SDS011;3138;52.550;13.148;2023-03-13T07:42:02;33.87;;;6.03;;
6209;SDS011;3138;52.550;13.148;2023-03-13T07:44:30;43.80;;;6.83;;
6209;SDS011;3138;52.550;13.148;2023-03-13T07:46:58;57.80;;;6.97;;
6209;SDS011;3138;52.550;13.148;2023-03-13T07:49:25;48.53;;;6.83;;
6209;SDS011;3138;52.550;13.148;2023-03-13T07:51:52;29.73;;;6.30;;
6209;SDS011;3138;52.550;13.148;2023-03-13T07:54:19;30.07;;;6.07;;
6209;SDS011;3138;52.550;13.148;2023-03-13T07:56:46;28.60;;;6.20;;
6209;SDS011;3138;52.550;13.148;2023-03-13T07:59:15;24.97;;;6.90;;
6209;SDS011;3138;52.550;13.148;2023-03-13T08:01:43;27.13;;;5.40;;
6209;SDS011;3138;52.550;13.148;2023-03-13T08:04:10;33.60;;;6.40;;
6209;SDS011;3138;52.550;13.148;2023-03-13T08:06:39;31.33;;;5.80;;
6209;SDS011;3138;52.550;13.148;2023-03-13T08:09:06;39.80;;;5.07;;
6209;SDS011;3138;52.550;13.148;2023-03-13T08:11:33;27.10;;;5.83;;
6209;SDS011;3138;52.550;13.148;2023-03-13T08:14:00;47.33;;;6.10;;
6209;SDS011;3138;52.550;13.148;2023-03-13T08:16:27;25.93;;;5.93;;
6209;SDS011;3138;52.550;13.148;2023-03-13T08:18:57;31.70;;;5.90;;
6209;SDS011;3138;52.550;13.148;2023-03-13T08:21:25;22.33;;;5.27;;
6209;SDS011;3138;52.550;13.148;2023-03-13T08:23:53;28.07;;;6.40;;
6209;SDS011;3138;52.550;13.148;2023-03-13T08:26:21;26.97;;;6.33;;
6209;SDS011;3138;52.550;13.148;2023-03-13T08:28:51;32.50;;;6.07;;
6209;SDS011;3138;52.550;13.148;2023-03-13T08:31:20;42.53;;;6.63;;
6209;SDS011;3138;52.550;13.148;2023-03-13T08:33:49;32.87;;;5.80;;
6209;SDS011;3138;52.550;13.148;2023-03-13T08:36:18;39.00;;;6.03;;
6209;SDS011;3138;52.550;13.148;2023-03-13T08:38:48;32.53;;;5.80;;
6209;SDS011;3138;52.550;13.148;2023-03-13T08:41:16;31.07;;;6.17;;
6209;SDS011;3138;52.550;13.148;2023-03-13T08:43:44;28.87;;;5.17;;
6209;SDS011;3138;52.550;13.148;2023-03-13T08:46:11;27.83;;;5.80;;
6209;SDS011;3138;52.550;13.148;2023-03-13T08:48:38;22.10;;;4.77;;
6209;SDS011;3138;52.550;13.148;2023-03-13T08:51:07;20.83;;;5.70;;
6209;SDS011;3138;52.550;13.148;2023-03-13T08:53:37;31.23;;;5.20;;
6209;SDS011;3138;52.550;13.148;2023-03-13T08:56:05;30.97;;;5.30;;
6209;SDS011;3138;52.550;13.148;2023-03-13T08:58:33;26.80;;;5.97;;
6209;SDS011;3138;52.550;13.148;2023-03-13T09:01:00;18.63;;;5.63;;
6209;SDS011;3138;52.550;13.148;2023-03-13T09:03:28;25.03;;;5.13;;
6209;SDS011;3138;52.550;13.148;2023-03-13T09:05:55;26.20;;;4.93;;
6209;SDS011;3138;52.550;13.148;2023-03-13T09:08:22;25.30;;;5.00;;
6209;SDS011;3138;52.550;13.148;2023-03-13T09:10:54;28.20;;;4.40;;
6209;SDS011;3138;52.550;13.148;2023-03-13T09:13:22;21.33;;;4.33;;
6209;SDS011;3138;52.550;13.148;2023-03-13T09:15:52;19.63;;;4.87;;
6209;SDS011;3138;52.550;13.148;2023-03-13T09:18:20;20.33;;;4.30;;
6209;SDS011;3138;52.550;13.148;2023-03-13T09:20:46;20.33;;;5.43;;
6209;SDS011;3138;52.550;13.148;2023-03-13T09:23:13;23.73;;;5.43;;
6209;SDS011;3138;52.550;13.148;2023-03-13T09:25:40;23.90;;;5.20;;
6209;SDS011;3138;52.550;13.148;2023-03-13T09:28:08;16.20;;;4.30;;
6209;SDS011;3138;52.550;13.148;2023-03-13T09:30:35;17.50;;;4.43;;
6209;SDS011;3138;52.550;13.148;2023-03-13T09:33:02;33.50;;;5.00;;
6209;SDS011;3138;52.550;13.148;2023-03-13T09:35:29;16.47;;;4.50;;
6209;SDS011;3138;52.550;13.148;2023-03-13T09:37:56;24.23;;;5.00;;
6209;SDS011;3138;52.550;13.148;2023-03-13T09:40:23;20.90;;;4.10;;
6209;SDS011;3138;52.550;13.148;2023-03-13T09:42:52;20.73;;;4.27;;
6209;SDS011;3138;52.550;13.148;2023-03-13T09:45:25;19.23;;;4.00;;
6209;SDS011;3138;52.550;13.148;2023-03-13T09:47:58;23.30;;;3.90;;
6209;SDS011;3138;52.550;13.148;2023-03-13T09:50:28;18.47;;;4.90;;
6209;SDS011;3138;52.550;13.148;2023-03-13T09:53:01;17.23;;;3.80;;
6209;SDS011;3138;52.550;13.148;2023-03-13T09:55:36;10.37;;;3.87;;
6209;SDS011;3138;52.550;13.148;2023-03-13T09:58:07;14.97;;;4.10;;
6209;SDS011;3138;52.550;13.148;2023-03-13T10:00:42;12.63;;;3.73;;
6209;SDS011;3138;52.550;13.148;2023-03-13T10:03:13;32.67;;;4.80;;
6209;SDS011;3138;52.550;13.148;2023-03-13T10:05:46;26.00;;;5.00;;
6209;SDS011;3138;52.550;13.148;2023-03-13T10:08:15;27.70;;;5.43;;
6209;SDS011;3138;52.550;13.148;2023-03-13T10:10:44;13.60;;;3.73;;
6209;SDS011;3138;52.550;13.148;2023-03-13T10:13:17;16.47;;;4.07;;
6209;SDS011;3138;52.550;13.148;2023-03-13T10:15:49;19.50;;;5.73;;
6209;SDS011;3138;52.550;13.148;2023-03-13T10:18:22;19.47;;;4.10;;
6209;SDS011;3138;52.550;13.148;2023-03-13T10:20:50;19.00;;;4.37;;
6209;SDS011;3138;52.550;13.148;2023-03-13T10:23:19;17.03;;;4.50;;
6209;SDS011;3138;52.550;13.148;2023-03-13T10:25:49;17.23;;;3.90;;
6209;SDS011;3138;52.550;13.148;2023-03-13T10:28:16;13.33;;;4.20;;
6209;SDS011;3138;52.550;13.148;2023-03-13T10:30:46;19.13;;;4.43;;
6209;SDS011;3138;52.550;13.148;2023-03-13T10:33:26;17.27;;;3.47;;
6209;SDS011;3138;52.550;13.148;2023-03-13T10:36:02;12.20;;;3.43;;
6209;SDS011;3138;52.550;13.148;2023-03-13T10:38:34;13.33;;;2.83;;
6209;SDS011;3138;52.550;13.148;2023-03-13T10:41:17;16.63;;;3.50;;
6209;SDS011;3138;52.550;13.148;2023-03-13T10:43:49;10.23;;;3.23;;
6209;SDS011;3138;52.550;13.148;2023-03-13T10:46:26;12.77;;;3.17;;
6209;SDS011;3138;52.550;13.148;2023-03-13T10:48:54;9.03;;;2.83;;
6209;SDS011;3138;52.550;13.148;2023-03-13T10:51:23;13.90;;;3.00;;
6209;SDS011;3138;52.550;13.148;2023-03-13T10:54:09;8.73;;;3.10;;
6209;SDS011;3138;52.550;13.148;2023-03-13T10:56:40;4.43;;;2.93;;
6209;SDS011;3138;52.550;13.148;2023-03-13T10:59:16;6.60;;;3.30;;
6209;SDS011;3138;52.550;13.148;2023-03-13T11:01:47;7.80;;;3.07;;
6209;SDS011;3138;52.550;13.148;2023-03-13T11:04:18;8.10;;;2.27;;
6209;SDS011;3138;52.550;13.148;2023-03-13T11:06:49;12.13;;;3.30;;
6209;SDS011;3138;52.550;13.148;2023-03-13T11:09:17;8.60;;;2.17;;
6209;SDS011;3138;52.550;13.148;2023-03-13T11:11:45;8.10;;;2.63;;
6209;SDS011;3138;52.550;13.148;2023-03-13T11:14:14;5.77;;;1.90;;
6209;SDS011;3138;52.550;13.148;2023-03-13T11:16:48;5.87;;;1.60;;
6209;SDS011;3138;52.550;13.148;2023-03-13T11:19:26;6.63;;;1.87;;
6209;SDS011;3138;52.550;13.148;2023-03-13T11:22:20;3.33;;;1.40;;
6209;SDS011;3138;52.550;13.148;2023-03-13T11:24:56;8.03;;;1.87;;
6209;SDS011;3138;52.550;13.148;2023-03-13T11:27:40;5.70;;;1.93;;
6209;SDS011;3138;52.550;13.148;2023-03-13T11:30:19;13.63;;;2.20;;
6209;SDS011;3138;52.550;13.148;2023-03-13T11:32:59;13.17;;;1.57;;
6209;SDS011;3138;52.550;13.148;2023-03-13T11:35:34;5.00;;;1.73;;
6209;SDS011;3138;52.550;13.148;2023-03-13T11:38:06;7.70;;;1.50;;
6209;SDS011;3138;52.550;13.148;2023-03-13T11:40:39;3.60;;;1.83;;
6209;SDS011;3138;52.550;13.148;2023-03-13T11:43:18;4.63;;;1.47;;
6209;SDS011;3138;52.550;13.148;2023-03-13T11:45:56;2.00;;;1.30;;
6209;SDS011;3138;52.550;13.148;2023-03-13T11:48:49;5.07;;;1.50;;
6209;SDS011;3138;52.550;13.148;2023-03-13T11:51:40;2.70;;;1.53;;
6209;SDS011;3138;52.550;13.148;2023-03-13T11:54:35;3.00;;;1.50;;
6209;SDS011;3138;52.550;13.148;2023-03-13T11:57:20;1.23;;;1.13;;
6209;SDS011;3138;52.550;13.148;2023-03-13T11:59:57;2.83;;;1.70;;
6209;SDS011;3138;52.550;13.148;2023-03-13T12:02:39;2.90;;;1.47;;
6209;SDS011;3138;52.550;13.148;2023-03-13T12:05:15;4.00;;;1.40;;
6209;SDS011;3138;52.550;13.148;2023-03-13T12:07:46;1.23;;;1.10;;
6209;SDS011;3138;52.550;13.148;2023-03-13T12:10:17;5.03;;;1.40;;
6209;SDS011;3138;52.550;13.148;2023-03-13T12:12:48;1.63;;;1.40;;
6209;SDS011;3138;52.550;13.148;2023-03-13T12:15:19;3.40;;;1.50;;
6209;SDS011;3138;52.550;13.148;2023-03-13T12:17:50;4.47;;;1.77;;
6209;SDS011;3138;52.550;13.148;2023-03-13T12:20:24;1.73;;;1.20;;
6209;SDS011;3138;52.550;13.148;2023-03-13T12:22:55;2.40;;;1.17;;
6209;SDS011;3138;52.550;13.148;2023-03-13T12:25:29;1.90;;;1.60;;
6209;SDS011;3138;52.550;13.148;2023-03-13T12:28:03;1.57;;;1.50;;
6209;SDS011;3138;52.550;13.148;2023-03-13T12:30:47;1.67;;;1.40;;
6209;SDS011;3138;52.550;13.148;2023-03-13T12:33:20;10.20;;;1.33;;
6209;SDS011;3138;52.550;13.148;2023-03-13T12:35:56;2.00;;;1.00;;
6209;SDS011;3138;52.550;13.148;2023-03-13T12:38:33;3.43;;;0.93;;
6209;SDS011;3138;52.550;13.148;2023-03-13T12:41:07;1.23;;;0.97;;
6209;SDS011;3138;52.550;13.148;2023-03-13T12:43:46;1.80;;;0.93;;
6209;SDS011;3138;52.550;13.148;2023-03-13T12:52:19;2.97;;;1.00;;
6209;SDS011;3138;52.550;13.148;2023-03-13T12:55:19;2.43;;;0.90;;
6209;SDS011;3138;52.550;13.148;2023-03-13T13:01:35;1.43;;;1.30;;
6209;SDS011;3138;52.550;13.148;2023-03-13T13:04:07;2.37;;;2.17;;
6209;SDS011;3138;52.550;13.148;2023-03-13T13:06:54;1.77;;;0.80;;
6209;SDS011;3138;52.550;13.148;2023-03-13T13:09:25;1.60;;;1.50;;
6209;SDS011;3138;52.550;13.148;2023-03-13T13:11:54;1.03;;;1.03;;
6209;SDS011;3138;52.550;13.148;2023-03-13T13:17:55;4.90;;;1.10;;
6209;SDS011;3138;52.550;13.148;2023-03-13T13:20:35;3.90;;;1.50;;
6209;SDS011;3138;52.550;13.148;2023-03-13T13:23:20;1.47;;;1.10;;
6209;SDS011;3138;52.550;13.148;2023-03-13T13:32:29;1.30;;;1.20;;
6209;SDS011;3138;52.550;13.148;2023-03-13T13:34:59;2.10;;;0.80;;
6209;SDS011;3138;52.550;13.148;2023-03-13T13:37:30;3.03;;;1.30;;
6209;SDS011;3138;52.550;13.148;2023-03-13T13:40:17;1.37;;;1.03;;
6209;SDS011;3138;52.550;13.148;2023-03-13T13:42:48;1.70;;;1.50;;
6209;SDS011;3138;52.550;13.148;2023-03-13T13:45:24;3.33;;;1.03;;
6209;SDS011;3138;52.550;13.148;2023-03-13T13:53:44;1.40;;;1.00;;
6209;SDS011;3138;52.550;13.148;2023-03-13T13:59:21;2.70;;;1.53;;
6209;SDS011;3138;52.550;13.148;2023-03-13T14:02:14;1.47;;;1.10;;
6209;SDS011;3138;52.550;13.148;2023-03-13T14:11:31;3.10;;;1.30;;
6209;SDS011;3138;52.550;13.148;2023-03-13T14:17:32;2.83;;;1.47;;
6209;SDS011;3138;52.550;13.148;2023-03-13T14:20:30;6.37;;;1.30;;
6209;SDS011;3138;52.550;13.148;2023-03-13T14:23:29;3.40;;;1.53;;
6209;SDS011;3138;52.550;13.148;2023-03-13T14:26:13;2.80;;;1.33;;
6209;SDS011;3138;52.550;13.148;2023-03-13T14:28:55;1.20;;;1.10;;
6209;SDS011;3138;52.550;13.148;2023-03-13T14:32:09;1.63;;;1.30;;
6209;SDS011;3138;52.550;13.148;2023-03-13T14:34:51;4.03;;;1.40;;
6209;SDS011;3138;52.550;13.148;2023-03-13T14:37:34;1.53;;;1.37;;
6209;SDS011;3138;52.550;13.148;2023-03-13T14:40:51;5.90;;;1.60;;
6209;SDS011;3138;52.550;13.148;2023-03-13T14:43:32;1.33;;;1.27;;
6209;SDS011;3138;52.550;13.148;2023-03-13T14:46:31;2.60;;;1.17;;
6209;SDS011;3138;52.550;13.148;2023-03-13T14:55:31;3.70;;;1.30;;
6209;SDS011;3138;52.550;13.148;2023-03-13T14:58:31;4.33;;;1.83;;
6209;SDS011;3138;52.550;13.148;2023-03-13T15:07:35;12.00;;;1.70;;
6209;SDS011;3138;52.550;13.148;2023-03-13T15:10:30;2.20;;;1.37;;
6209;SDS011;3138;52.550;13.148;2023-03-13T15:16:30;4.20;;;1.20;;
6209;SDS011;3138;52.550;13.148;2023-03-13T15:31:29;1.33;;;1.33;;
6209;SDS011;3138;52.550;13.148;2023-03-13T15:34:12;1.60;;;1.43;;
6209;SDS011;3138;52.550;13.148;2023-03-13T15:36:49;5.57;;;1.50;;
6209;SDS011;3138;52.550;13.148;2023-03-13T15:39:51;1.97;;;1.30;;
6209;SDS011;3138;52.550;13.148;2023-03-13T15:42:28;1.53;;;1.43;;
6209;SDS011;3138;52.550;13.148;2023-03-13T15:50:54;2.63;;;2.03;;
6209;SDS011;3138;52.550;13.148;2023-03-13T15:53:31;4.00;;;2.83;;
6209;SDS011;3138;52.550;13.148;2023-03-13T15:56:12;5.13;;;2.23;;
6209;SDS011;3138;52.550;13.148;2023-03-13T15:58:56;7.53;;;2.90;;
6209;SDS011;3138;52.550;13.148;2023-03-13T16:01:26;3.20;;;2.37;;
6209;SDS011;3138;52.550;13.148;2023-03-13T16:03:53;3.40;;;2.73;;
6209;SDS011;3138;52.550;13.148;2023-03-13T16:06:22;2.30;;;2.10;;
6209;SDS011;3138;52.550;13.148;2023-03-13T16:08:55;6.23;;;4.17;;
6209;SDS011;3138;52.550;13.148;2023-03-13T16:11:32;4.23;;;2.60;;
6209;SDS011;3138;52.550;13.148;2023-03-13T16:13:59;3.60;;;1.40;;
6209;SDS011;3138;52.550;13.148;2023-03-13T16:16:29;2.13;;;1.60;;
6209;SDS011;3138;52.550;13.148;2023-03-13T16:19:07;4.23;;;1.70;;
6209;SDS011;3138;52.550;13.148;2023-03-13T16:22:07;3.10;;;1.37;;
6209;SDS011;3138;52.550;13.148;2023-03-13T16:24:49;1.30;;;1.20;;
6209;SDS011;3138;52.550;13.148;2023-03-13T16:27:18;1.40;;;1.30;;
6209;SDS011;3138;52.550;13.148;2023-03-13T16:30:10;6.00;;;1.50;;
6209;SDS011;3138;52.550;13.148;2023-03-13T16:32:50;3.73;;;1.70;;
6209;SDS011;3138;52.550;13.148;2023-03-13T16:35:28;1.67;;;1.57;;
6209;SDS011;3138;52.550;13.148;2023-03-13T16:37:55;4.20;;;1.90;;
6209;SDS011;3138;52.550;13.148;2023-03-13T16:40:23;7.63;;;1.37;;
6209;SDS011;3138;52.550;13.148;2023-03-13T16:42:51;2.43;;;1.63;;
6209;SDS011;3138;52.550;13.148;2023-03-13T16:45:18;10.70;;;1.13;;
6209;SDS011;3138;52.550;13.148;2023-03-13T16:47:46;4.73;;;1.30;;
6209;SDS011;3138;52.550;13.148;2023-03-13T16:50:16;3.57;;;1.60;;
6209;SDS011;3138;52.550;13.148;2023-03-13T16:52:48;1.90;;;1.77;;